createdAt,value
2019-05-23T00:00:16.427Z,98.0
2019-05-23T00:01:16.424Z,98.0
2019-05-23T00:02:16.699Z,98.0
2019-05-23T00:03:16.959Z,98.2
2019-05-23T00:04:17.224Z,98.0
2019-05-23T00:05:16.492Z,98.0
2019-05-23T00:06:16.773Z,98.0
2019-05-23T00:07:17.049Z,98.0
2019-05-23T00:08:16.314Z,98.0
2019-05-23T00:09:16.588Z,98.0
2019-05-23T00:10:16.860Z,98.1
2019-05-23T00:11:16.908Z,98.2
2019-05-23T00:12:17.181Z,98.2
2019-05-23T00:13:16.448Z,98.2
2019-05-23T00:14:16.723Z,98.2
2019-05-23T00:15:17.077Z,98.3
2019-05-23T00:16:16.353Z,98.4
2019-05-23T00:17:16.657Z,98.3
2019-05-23T00:18:16.970Z,98.2
2019-05-23T00:19:17.260Z,98.2
2019-05-23T00:20:16.555Z,98.2
2019-05-23T00:21:16.596Z,98.3
2019-05-23T00:22:16.859Z,98.3
2019-05-23T00:23:17.128Z,98.3
2019-05-23T00:24:16.398Z,98.5
2019-05-23T00:25:16.661Z,98.5
2019-05-23T00:26:16.937Z,98.6
2019-05-23T00:27:17.206Z,98.7
2019-05-23T00:28:16.478Z,98.5
2019-05-23T00:29:16.812Z,98.5
2019-05-23T00:30:17.095Z,98.5
2019-05-23T00:31:17.168Z,98.6
2019-05-23T00:32:16.426Z,98.5
2019-05-23T00:33:16.701Z,98.5
2019-05-23T00:34:16.970Z,98.5
2019-05-23T00:35:17.257Z,98.5
2019-05-23T00:36:16.526Z,98.5
2019-05-23T00:37:16.793Z,98.7
2019-05-23T00:38:17.057Z,98.6
2019-05-23T00:39:16.332Z,98.6
2019-05-23T00:40:16.611Z,98.7
2019-05-23T00:41:16.681Z,98.6
2019-05-23T00:42:16.962Z,98.6
2019-05-23T00:43:17.225Z,98.7
2019-05-23T00:44:16.504Z,98.8
2019-05-23T00:45:16.770Z,98.8
2019-05-23T00:46:17.036Z,98.8
2019-05-23T00:47:16.301Z,98.9
2019-05-23T00:48:16.575Z,99.0
2019-05-23T00:49:16.843Z,99.0
2019-05-23T00:50:17.115Z,99.0
2019-05-23T00:51:17.169Z,99.0
2019-05-23T00:52:16.439Z,99.0
2019-05-23T00:53:16.696Z,99.0
2019-05-23T00:54:17.023Z,99.0
2019-05-23T00:55:16.301Z,99.0
2019-05-23T00:56:16.566Z,99.0
2019-05-23T00:57:16.832Z,99.0
2019-05-23T00:58:17.097Z,98.8
2019-05-23T00:59:27.688Z,98.8
2019-05-23T01:00:17.132Z,98.7
2019-05-23T01:01:17.191Z,98.6
2019-05-23T01:02:16.567Z,98.5
2019-05-23T01:03:16.883Z,98.5
2019-05-23T01:04:17.180Z,98.5
2019-05-23T01:05:16.462Z,98.5
2019-05-23T01:06:16.733Z,98.4
2019-05-23T01:07:16.998Z,98.4
2019-05-23T01:08:16.269Z,98.4
2019-05-23T01:09:16.536Z,98.4
2019-05-23T01:10:16.824Z,98.5
2019-05-23T01:11:16.866Z,98.5
2019-05-23T01:12:17.135Z,98.5
2019-05-23T01:13:16.403Z,98.5
2019-05-23T01:14:16.675Z,98.5
2019-05-23T01:15:16.943Z,98.5
2019-05-23T01:16:17.217Z,98.5
2019-05-23T01:17:16.474Z,98.5
2019-05-23T01:18:16.747Z,98.7
2019-05-23T01:19:17.014Z,98.7
2019-05-23T01:20:16.293Z,98.7
2019-05-23T01:21:16.356Z,98.6
2019-05-23T01:22:16.642Z,98.6
2019-05-23T01:23:16.906Z,98.6
2019-05-23T01:24:17.188Z,98.5
2019-05-23T01:25:16.456Z,98.6
2019-05-23T01:26:16.714Z,98.7
2019-05-23T01:27:16.987Z,98.7
2019-05-23T01:28:17.256Z,98.6
2019-05-23T01:29:16.522Z,98.7
2019-05-23T01:30:16.824Z,98.8
2019-05-23T01:31:16.862Z,98.8
2019-05-23T01:32:17.129Z,98.8
2019-05-23T01:33:16.401Z,99.0
2019-05-23T01:34:16.670Z,99.0
2019-05-23T01:35:16.946Z,99.0
2019-05-23T01:36:17.228Z,99.1
2019-05-23T01:37:16.491Z,99.0
2019-05-23T01:38:16.761Z,99.0
2019-05-23T01:39:17.043Z,99.0
2019-05-23T01:40:16.320Z,99.1
2019-05-23T01:41:16.488Z,99.2
2019-05-23T01:42:16.992Z,99.3
2019-05-23T01:43:16.292Z,99.3
2019-05-23T01:44:16.596Z,99.3
2019-05-23T01:45:16.923Z,99.4
2019-05-23T01:46:17.182Z,99.5
2019-05-23T01:47:16.463Z,99.5
2019-05-23T01:48:16.751Z,99.7
2019-05-23T01:49:17.017Z,99.7
2019-05-23T01:50:16.303Z,99.7
2019-05-23T01:51:16.342Z,99.7
2019-05-23T01:52:16.652Z,99.7
2019-05-23T01:53:16.919Z,99.8
2019-05-23T01:54:17.190Z,99.8
2019-05-23T01:55:16.468Z,99.8
2019-05-23T01:56:16.750Z,99.8
2019-05-23T01:57:17.007Z,99.8
2019-05-23T01:58:16.333Z,99.8
2019-05-23T01:59:16.602Z,99.8
2019-05-23T02:00:16.881Z,99.8
2019-05-23T02:01:16.946Z,99.8
2019-05-23T02:02:17.218Z,99.7
2019-05-23T02:03:16.493Z,99.7
2019-05-23T02:04:16.763Z,99.6
2019-05-23T02:05:17.035Z,99.5
2019-05-23T02:06:16.310Z,99.5
2019-05-23T02:07:16.591Z,99.5
2019-05-23T02:08:17.147Z,99.5
2019-05-23T02:09:16.460Z,99.5
2019-05-23T02:10:16.761Z,99.5
2019-05-23T02:11:16.820Z,99.3
2019-05-23T02:12:17.093Z,99.2
2019-05-23T02:13:16.378Z,99.2
2019-05-23T02:14:16.647Z,99.2
2019-05-23T02:15:16.976Z,99.2
2019-05-23T02:16:17.279Z,99.2
2019-05-23T02:17:16.542Z,99.2
2019-05-23T02:18:16.800Z,99.3
2019-05-23T02:19:17.076Z,99.3
2019-05-23T02:20:17.244Z,99.3
2019-05-23T02:21:17.253Z,99.3
2019-05-23T02:22:16.524Z,99.3
2019-05-23T02:23:16.796Z,99.3
2019-05-23T02:24:17.123Z,99.3
2019-05-23T02:25:16.419Z,99.3
2019-05-23T02:26:16.697Z,99.3
2019-05-23T02:27:16.967Z,99.3
2019-05-23T02:28:17.235Z,99.3
2019-05-23T02:29:16.505Z,99.5
2019-05-23T02:30:34.433Z,99.5
2019-05-23T02:31:17.103Z,99.5
2019-05-23T02:32:16.369Z,99.5
2019-05-23T02:33:16.644Z,99.5
2019-05-23T02:34:16.918Z,99.5
2019-05-23T02:35:17.206Z,99.4
2019-05-23T02:36:16.548Z,99.4
2019-05-23T02:37:16.992Z,99.3
2019-05-23T02:38:16.284Z,99.3
2019-05-23T02:39:16.565Z,99.4
2019-05-23T02:40:16.859Z,99.5
2019-05-23T02:41:16.924Z,99.5
2019-05-23T02:42:17.210Z,99.5
2019-05-23T02:43:16.480Z,99.5
2019-05-23T02:44:16.762Z,99.5
2019-05-23T02:45:17.033Z,99.5
2019-05-23T02:46:16.299Z,99.7
2019-05-23T02:47:16.575Z,99.6
2019-05-23T02:48:16.865Z,99.7
2019-05-23T02:49:17.132Z,99.7
2019-05-23T02:50:16.436Z,99.7
2019-05-23T02:51:16.489Z,99.7
2019-05-23T02:52:16.773Z,99.7
2019-05-23T02:53:17.079Z,99.7
2019-05-23T02:54:16.347Z,99.7
2019-05-23T02:55:16.618Z,99.7
2019-05-23T02:56:16.904Z,99.7
2019-05-23T02:57:17.188Z,99.7
2019-05-23T02:58:16.458Z,99.7
2019-05-23T02:59:16.727Z,99.7
2019-05-23T03:00:17.013Z,99.7
2019-05-23T03:01:17.078Z,99.8
2019-05-23T03:02:16.343Z,99.8
2019-05-23T03:03:16.614Z,99.8
2019-05-23T03:04:16.904Z,99.8
2019-05-23T03:05:17.196Z,99.8
2019-05-23T03:06:16.475Z,99.8
2019-05-23T03:07:16.768Z,99.8
2019-05-23T03:08:17.042Z,99.8
2019-05-23T03:09:16.323Z,99.8
2019-05-23T03:10:16.605Z,99.8
2019-05-23T03:11:16.666Z,99.8
2019-05-23T03:12:16.939Z,99.8
2019-05-23T03:13:17.215Z,99.8
2019-05-23T03:14:16.518Z,99.8
2019-05-23T03:15:17.226Z,99.9
2019-05-23T03:16:16.503Z,99.9
2019-05-23T03:17:16.765Z,100.0
2019-05-23T03:18:17.032Z,99.9
2019-05-23T03:19:16.306Z,99.9
2019-05-23T03:20:16.578Z,100.0
2019-05-23T03:21:16.629Z,100.0
2019-05-23T03:22:16.907Z,100.0
2019-05-23T03:23:17.219Z,100.0
2019-05-23T03:24:16.510Z,100.0
2019-05-23T03:25:16.783Z,100.0
2019-05-23T03:26:17.092Z,100.0
2019-05-23T03:27:16.364Z,100.0
2019-05-23T03:28:16.649Z,100.0
2019-05-23T03:29:16.915Z,100.0
2019-05-23T03:30:17.304Z,100.0
2019-05-23T03:31:31.298Z,100.0
2019-05-23T03:32:16.429Z,100.0
2019-05-23T03:33:16.743Z,100.0
2019-05-23T03:34:17.069Z,100.0
2019-05-23T03:35:16.356Z,100.0
2019-05-23T03:36:16.623Z,100.0
2019-05-23T03:37:16.894Z,100.0
2019-05-23T03:38:17.188Z,100.0
2019-05-23T03:39:16.468Z,100.0
2019-05-23T03:40:16.761Z,100.0
2019-05-23T03:41:16.825Z,100.0
2019-05-23T03:42:17.131Z,100.0
2019-05-23T03:43:16.434Z,100.0
2019-05-23T03:44:16.749Z,100.0
2019-05-23T03:45:17.069Z,100.0
2019-05-23T03:46:16.341Z,100.0
2019-05-23T03:47:16.619Z,100.0
2019-05-23T03:48:16.917Z,100.0
2019-05-23T03:49:17.184Z,99.9
2019-05-23T03:50:16.479Z,99.8
2019-05-23T03:51:16.548Z,99.8
2019-05-23T03:52:16.820Z,99.8
2019-05-23T03:53:17.125Z,99.8
2019-05-23T03:54:16.389Z,99.8
2019-05-23T03:55:16.686Z,99.8
2019-05-23T03:56:16.964Z,99.8
2019-05-23T03:57:17.254Z,99.8
2019-05-23T03:58:16.521Z,99.8
2019-05-23T03:59:16.799Z,100.0
2019-05-23T04:00:17.128Z,100.0
2019-05-23T04:01:17.155Z,100.0
2019-05-23T04:02:16.455Z,100.0
2019-05-23T04:03:16.861Z,100.0
2019-05-23T04:04:17.167Z,100.0
2019-05-23T04:05:16.444Z,100.0
2019-05-23T04:06:16.737Z,100.0
2019-05-23T04:07:17.015Z,100.0
2019-05-23T04:08:16.292Z,100.0
2019-05-23T04:09:16.568Z,99.8
2019-05-23T04:10:16.876Z,99.8
2019-05-23T04:11:16.950Z,99.8
2019-05-23T04:12:17.222Z,99.8
2019-05-23T04:13:16.492Z,99.8
2019-05-23T04:14:16.761Z,99.9
2019-05-23T04:15:17.045Z,99.8
2019-05-23T04:16:16.321Z,100.0
2019-05-23T04:17:16.652Z,100.0
2019-05-23T04:18:16.970Z,99.9
2019-05-23T04:19:17.251Z,100.0
2019-05-23T04:20:16.519Z,99.8
2019-05-23T04:21:16.580Z,99.8
2019-05-23T04:22:16.853Z,99.8
2019-05-23T04:23:17.147Z,99.8
2019-05-23T04:24:16.430Z,99.8
2019-05-23T04:25:16.721Z,99.8
2019-05-23T04:26:16.998Z,99.8
2019-05-23T04:27:16.264Z,99.8
2019-05-23T04:28:16.551Z,99.7
2019-05-23T04:29:16.823Z,99.7
2019-05-23T04:30:17.158Z,99.6
2019-05-23T04:31:17.167Z,99.5
2019-05-23T04:32:16.429Z,99.7
2019-05-23T04:33:16.703Z,99.7
2019-05-23T04:34:16.977Z,99.7
2019-05-23T04:35:17.251Z,99.7
2019-05-23T04:36:16.527Z,99.8
2019-05-23T04:37:16.795Z,99.7
2019-05-23T04:38:17.090Z,99.7
2019-05-23T04:39:16.390Z,99.6
2019-05-23T04:40:16.664Z,99.5
2019-05-23T04:41:16.751Z,99.5
2019-05-23T04:42:17.035Z,99.5
2019-05-23T04:43:16.319Z,99.4
2019-05-23T04:44:16.600Z,99.4
2019-05-23T04:45:16.869Z,99.2
2019-05-23T04:46:17.132Z,99.2
2019-05-23T04:47:16.401Z,99.3
2019-05-23T04:48:16.667Z,99.2
2019-05-23T04:49:16.929Z,99.2
2019-05-23T04:50:17.214Z,99.2
2019-05-23T04:51:17.267Z,99.3
2019-05-23T04:52:16.546Z,99.2
2019-05-23T04:53:16.824Z,99.3
2019-05-23T04:54:17.123Z,99.3
2019-05-23T04:55:16.422Z,99.3
2019-05-23T04:56:16.727Z,99.3
2019-05-23T04:57:16.997Z,99.3
2019-05-23T04:58:16.286Z,99.2
2019-05-23T04:59:16.557Z,99.0
2019-05-23T05:00:16.838Z,99.0
2019-05-23T05:01:16.918Z,99.0
2019-05-23T05:02:27.183Z,99.0
2019-05-23T05:03:18.935Z,99.0
2019-05-23T05:04:17.242Z,99.0
2019-05-23T05:05:16.540Z,98.9
2019-05-23T05:06:16.830Z,98.7
2019-05-23T05:07:17.125Z,98.5
2019-05-23T05:08:16.833Z,98.5
2019-05-23T05:09:17.136Z,98.5
2019-05-23T05:10:16.408Z,98.5
2019-05-23T05:11:16.476Z,98.5
2019-05-23T05:12:16.747Z,98.6
2019-05-23T05:13:17.025Z,98.5
2019-05-23T05:14:16.296Z,98.3
2019-05-23T05:15:16.573Z,98.2
2019-05-23T05:16:16.858Z,98.5
2019-05-23T05:17:17.124Z,98.4
2019-05-23T05:18:16.470Z,98.3
2019-05-23T05:19:16.942Z,98.5
2019-05-23T05:20:17.248Z,98.5
2019-05-23T05:21:16.327Z,98.5
2019-05-23T05:22:16.596Z,98.5
2019-05-23T05:23:16.866Z,98.2
2019-05-23T05:24:17.129Z,98.1
2019-05-23T05:25:16.405Z,98.1
2019-05-23T05:26:16.674Z,98.2
2019-05-23T05:27:16.942Z,98.2
2019-05-23T05:28:17.208Z,97.8
2019-05-23T05:29:16.484Z,97.5
2019-05-23T05:30:16.764Z,97.5
2019-05-23T05:31:16.875Z,97.4
2019-05-23T05:32:17.147Z,97.3
2019-05-23T05:33:16.487Z,97.3
2019-05-23T05:34:16.765Z,97.3
2019-05-23T05:35:17.140Z,97.5
2019-05-23T05:36:16.442Z,97.8
2019-05-23T05:37:16.728Z,97.8
2019-05-23T05:38:17.006Z,97.8
2019-05-23T05:39:16.277Z,97.6
2019-05-23T05:40:16.560Z,97.5
2019-05-23T05:41:16.622Z,97.3
2019-05-23T05:42:16.901Z,97.2
2019-05-23T05:43:17.198Z,97.1
2019-05-23T05:44:16.535Z,97.1
2019-05-23T05:45:16.844Z,97.0
2019-05-23T05:46:17.250Z,96.8
2019-05-23T05:47:16.583Z,96.8
2019-05-23T05:48:16.878Z,96.8
2019-05-23T05:49:17.148Z,97.0
2019-05-23T05:50:16.431Z,97.0
2019-05-23T05:51:16.493Z,97.2
2019-05-23T05:52:16.765Z,97.3
2019-05-23T05:53:17.049Z,97.2
2019-05-23T05:54:16.321Z,97.2
2019-05-23T05:55:16.602Z,97.4
2019-05-23T05:56:16.933Z,97.1
2019-05-23T05:57:17.221Z,97.0
2019-05-23T05:58:16.500Z,96.7
2019-05-23T05:59:16.797Z,96.5
2019-05-23T06:00:17.097Z,96.4
2019-05-23T06:01:33.634Z,96.3
2019-05-23T06:02:16.650Z,96.3
2019-05-23T06:03:16.953Z,96.4
2019-05-23T06:04:17.233Z,96.2
2019-05-23T06:05:16.500Z,96.3
2019-05-23T06:06:16.767Z,97.2
2019-05-23T06:07:17.046Z,97.2
2019-05-23T06:08:16.314Z,96.8
2019-05-23T06:09:16.574Z,96.4
2019-05-23T06:10:16.870Z,96.5
2019-05-23T06:11:16.940Z,96.2
2019-05-23T06:12:17.207Z,95.9
2019-05-23T06:13:16.478Z,95.6
2019-05-23T06:14:16.757Z,95.8
2019-05-23T06:15:17.026Z,96.2
2019-05-23T06:16:16.292Z,96.3
2019-05-23T06:17:16.582Z,96.1
2019-05-23T06:18:16.857Z,95.8
2019-05-23T06:19:17.125Z,95.7
2019-05-23T06:20:16.401Z,95.9
2019-05-23T06:21:16.486Z,95.8
2019-05-23T06:22:16.753Z,95.5
2019-05-23T06:23:17.019Z,95.2
2019-05-23T06:24:16.315Z,95.4
2019-05-23T06:25:16.684Z,95.3
2019-05-23T06:26:16.968Z,95.1
2019-05-23T06:27:17.255Z,94.9
2019-05-23T06:28:16.540Z,94.9
2019-05-23T06:29:16.797Z,95.0
2019-05-23T06:30:17.072Z,95.2
2019-05-23T06:31:17.151Z,95.0
2019-05-23T06:32:16.433Z,94.8
2019-05-23T06:33:24.395Z,94.8
2019-05-23T06:34:16.802Z,94.9
2019-05-23T06:35:17.085Z,95.2
2019-05-23T06:36:16.363Z,95.0
2019-05-23T06:37:16.799Z,95.0
2019-05-23T06:38:17.206Z,94.8
2019-05-23T06:39:16.791Z,94.8
2019-05-23T06:40:17.123Z,95.2
2019-05-23T06:41:17.256Z,95.0
2019-05-23T06:42:16.543Z,94.7
2019-05-23T06:43:16.816Z,94.6
2019-05-23T06:44:17.128Z,93.7
2019-05-23T06:45:16.450Z,92.2
2019-05-23T06:46:16.720Z,92.5
2019-05-23T06:47:16.989Z,91.3
2019-05-23T06:48:17.266Z,90.8
2019-05-23T06:49:16.557Z,90.5
2019-05-23T06:50:16.908Z,90.2
2019-05-23T06:51:16.898Z,90.3
2019-05-23T06:52:17.171Z,89.7
2019-05-23T06:53:16.491Z,90.4
2019-05-23T06:54:16.776Z,90.2
2019-05-23T06:55:17.071Z,89.5
2019-05-23T06:56:16.364Z,88.6
2019-05-23T06:57:16.639Z,87.9
2019-05-23T06:58:17.002Z,88.3
2019-05-23T06:59:16.287Z,87.2
2019-05-23T07:00:16.576Z,86.7
2019-05-23T07:01:16.631Z,87.7
2019-05-23T07:02:16.914Z,86.7
2019-05-23T07:03:17.185Z,85.3
2019-05-23T07:04:16.479Z,85.4
2019-05-23T07:05:16.760Z,84.8
2019-05-23T07:06:17.056Z,84.4
2019-05-23T07:07:16.324Z,84.3
2019-05-23T07:08:16.601Z,84.3
2019-05-23T07:09:16.877Z,84.0
2019-05-23T07:10:17.182Z,84.5
2019-05-23T07:11:17.209Z,84.1
2019-05-23T07:12:16.479Z,84.3
2019-05-23T07:13:16.750Z,83.2
2019-05-23T07:14:17.031Z,82.8
2019-05-23T07:15:16.310Z,83.5
2019-05-23T07:16:16.569Z,82.1
2019-05-23T07:17:16.845Z,82.7
2019-05-23T07:18:17.123Z,83.2
2019-05-23T07:19:16.394Z,83.7
2019-05-23T07:20:16.740Z,83.2
2019-05-23T07:21:16.788Z,83.4
2019-05-23T07:22:19.644Z,82.2
2019-05-23T07:23:17.035Z,83.1
2019-05-23T07:24:16.314Z,83.4
2019-05-23T07:25:16.585Z,82.4
2019-05-23T07:26:16.867Z,82.4
2019-05-23T07:27:17.136Z,81.8
2019-05-23T07:28:16.432Z,81.8
2019-05-23T07:29:16.738Z,81.5
2019-05-23T07:30:17.026Z,81.2
2019-05-23T07:31:17.079Z,80.4
2019-05-23T07:32:16.337Z,79.8
2019-05-23T07:33:16.616Z,79.6
2019-05-23T07:34:16.879Z,78.3
2019-05-23T07:35:17.147Z,76.3
2019-05-23T07:36:16.438Z,76.7
2019-05-23T07:37:16.709Z,75.8
2019-05-23T07:38:16.983Z,75.0
2019-05-23T07:39:17.267Z,76.0
2019-05-23T07:40:16.552Z,76.1
2019-05-23T07:41:16.618Z,77.0
2019-05-23T07:42:16.898Z,75.8
2019-05-23T07:43:17.181Z,75.1
2019-05-23T07:44:16.612Z,78.1
2019-05-23T07:45:16.905Z,76.6
2019-05-23T07:46:17.176Z,76.4
2019-05-23T07:47:16.456Z,75.4
2019-05-23T07:48:16.809Z,75.5
2019-05-23T07:49:17.080Z,74.8
2019-05-23T07:50:16.366Z,73.5
2019-05-23T07:51:16.530Z,72.8
2019-05-23T07:52:16.817Z,72.6
2019-05-23T07:53:17.122Z,74.5
2019-05-23T07:54:16.426Z,74.5
2019-05-23T07:55:16.756Z,72.3
2019-05-23T07:56:17.034Z,71.6
2019-05-23T07:57:16.310Z,72.3
2019-05-23T07:58:16.574Z,69.2
2019-05-23T07:59:16.847Z,68.8
2019-05-23T08:00:17.135Z,69.0
2019-05-23T08:01:17.183Z,68.8
2019-05-23T08:02:16.472Z,67.7
2019-05-23T08:03:16.742Z,64.0
2019-05-23T08:04:22.544Z,64.3
2019-05-23T08:05:17.239Z,64.9
2019-05-23T08:06:16.627Z,64.5
2019-05-23T08:07:16.928Z,64.4
2019-05-23T08:08:17.545Z,63.9
2019-05-23T08:09:16.820Z,61.8
2019-05-23T08:10:33.411Z,62.8
2019-05-23T08:11:17.034Z,64.5
2019-05-23T08:12:16.317Z,64.5
2019-05-23T08:13:16.582Z,64.5
2019-05-23T08:14:16.855Z,63.2
2019-05-23T08:15:17.132Z,62.9
2019-05-23T08:16:16.411Z,63.4
2019-05-23T08:17:16.690Z,61.8
2019-05-23T08:18:16.952Z,58.7
2019-05-23T08:19:19.936Z,59.5
2019-05-23T08:20:17.233Z,62.5
2019-05-23T08:21:16.312Z,62.4
2019-05-23T08:22:16.609Z,60.0
2019-05-23T08:23:16.910Z,60.2
2019-05-23T08:24:17.189Z,61.4
2019-05-23T08:25:16.453Z,61.9
2019-05-23T08:26:16.725Z,61.2
2019-05-23T08:27:17.003Z,61.7
2019-05-23T08:28:16.268Z,61.5
2019-05-23T08:29:26.904Z,61.2
2019-05-23T08:30:16.316Z,62.4
2019-05-23T08:31:16.351Z,62.0
2019-05-23T08:32:16.627Z,63.0
2019-05-23T08:33:17.072Z,63.6
2019-05-23T08:34:16.364Z,62.4
2019-05-23T08:35:18.296Z,61.0
2019-05-23T08:36:16.624Z,61.5
2019-05-23T08:37:16.886Z,60.8
2019-05-23T08:38:17.159Z,60.7
2019-05-23T08:39:16.439Z,61.5
2019-05-23T08:40:16.724Z,61.1
2019-05-23T08:41:16.789Z,60.2
2019-05-23T08:42:17.053Z,60.9
2019-05-23T08:43:16.344Z,61.0
2019-05-23T08:44:16.630Z,59.0
2019-05-23T08:45:16.906Z,59.5
2019-05-23T08:46:17.191Z,58.9
2019-05-23T08:47:16.463Z,59.2
2019-05-23T08:48:16.734Z,58.6
2019-05-23T08:49:17.005Z,59.6
2019-05-23T08:50:16.289Z,58.0
2019-05-23T08:51:16.357Z,57.1
2019-05-23T08:52:16.630Z,57.2
2019-05-23T08:53:16.896Z,57.5
2019-05-23T08:54:17.166Z,57.0
2019-05-23T08:55:16.688Z,57.9
2019-05-23T08:56:19.897Z,56.9
2019-05-23T08:57:17.203Z,56.4
2019-05-23T08:58:16.909Z,58.1
2019-05-23T08:59:16.440Z,57.6
2019-05-23T09:00:16.746Z,57.2
2019-05-23T09:01:16.811Z,57.5
2019-05-23T09:02:17.080Z,59.5
2019-05-23T09:03:16.361Z,60.5
2019-05-23T09:04:16.655Z,59.7
2019-05-23T09:05:16.957Z,59.3
2019-05-23T09:06:17.238Z,58.8
2019-05-23T09:07:16.572Z,58.2
2019-05-23T09:08:17.507Z,57.1
2019-05-23T09:09:30.126Z,56.8
2019-05-23T09:10:16.723Z,57.1
2019-05-23T09:11:16.794Z,55.9
2019-05-23T09:12:17.072Z,55.9
2019-05-23T09:13:16.342Z,56.9
2019-05-23T09:14:16.625Z,55.8
2019-05-23T09:15:16.939Z,56.1
2019-05-23T09:16:17.219Z,56.9
2019-05-23T09:17:16.499Z,55.2
2019-05-23T09:18:16.771Z,54.7
2019-05-23T09:19:17.034Z,57.0
2019-05-23T09:20:16.312Z,57.5
2019-05-23T09:21:16.392Z,57.1
2019-05-23T09:22:16.665Z,57.8
2019-05-23T09:23:16.951Z,58.2
2019-05-23T09:24:17.227Z,57.3
2019-05-23T09:25:16.530Z,58.9
2019-05-23T09:26:16.806Z,58.0
2019-05-23T09:27:17.082Z,59.2
2019-05-23T09:28:16.349Z,58.5
2019-05-23T09:29:16.625Z,59.5
2019-05-23T09:30:16.911Z,59.2
2019-05-23T09:31:16.957Z,58.1
2019-05-23T09:32:17.626Z,57.1
2019-05-23T09:33:16.891Z,55.5
2019-05-23T09:34:17.190Z,58.7
2019-05-23T09:35:22.234Z,54.8
2019-05-23T09:36:16.737Z,53.1
2019-05-23T09:37:17.003Z,53.1
2019-05-23T09:38:16.274Z,55.0
2019-05-23T09:39:16.563Z,54.1
2019-05-23T09:40:16.848Z,53.9
2019-05-23T09:41:16.899Z,53.3
2019-05-23T09:42:17.181Z,54.0
2019-05-23T09:43:16.535Z,53.5
2019-05-23T09:44:16.794Z,51.5
2019-05-23T09:45:17.085Z,51.4
2019-05-23T09:46:16.349Z,50.8
2019-05-23T09:47:16.630Z,53.4
2019-05-23T09:48:16.890Z,53.1
2019-05-23T09:49:17.161Z,53.7
2019-05-23T09:50:16.449Z,53.7
2019-05-23T09:51:16.509Z,55.1
2019-05-23T09:52:16.929Z,54.1
2019-05-23T09:53:17.241Z,53.8
2019-05-23T09:54:16.551Z,54.0
2019-05-23T09:55:16.863Z,52.8
2019-05-23T09:56:17.192Z,53.9
2019-05-23T09:57:16.514Z,53.8
2019-05-23T09:58:16.837Z,52.1
2019-05-23T09:59:17.119Z,52.1
2019-05-23T10:00:16.397Z,51.6
2019-05-23T10:01:16.481Z,51.5
2019-05-23T10:02:16.843Z,53.5
2019-05-23T10:03:17.160Z,51.5
2019-05-23T10:04:16.429Z,54.0
2019-05-23T10:05:16.739Z,53.4
2019-05-23T10:06:17.007Z,52.8
2019-05-23T10:07:16.281Z,51.6
2019-05-23T10:08:16.554Z,51.1
2019-05-23T10:09:16.815Z,51.3
2019-05-23T10:10:17.125Z,49.3
2019-05-23T10:11:17.159Z,49.0
2019-05-23T10:12:16.420Z,49.5
2019-05-23T10:13:16.696Z,50.2
2019-05-23T10:14:16.972Z,50.4
2019-05-23T10:15:17.252Z,51.1
2019-05-23T10:16:16.530Z,49.9
2019-05-23T10:17:16.813Z,49.5
2019-05-23T10:18:17.076Z,49.8
2019-05-23T10:19:16.343Z,50.2
2019-05-23T10:20:16.619Z,50.9
2019-05-23T10:21:16.708Z,50.3
2019-05-23T10:22:16.986Z,51.7
2019-05-23T10:23:17.247Z,52.9
2019-05-23T10:24:16.536Z,50.2
2019-05-23T10:25:16.810Z,49.6
2019-05-23T10:26:17.085Z,49.7
2019-05-23T10:27:16.356Z,48.4
2019-05-23T10:28:16.620Z,48.1
2019-05-23T10:29:16.885Z,47.4
2019-05-23T10:30:17.168Z,48.6
2019-05-23T10:31:17.212Z,46.5
2019-05-23T10:32:16.483Z,48.4
2019-05-23T10:33:16.780Z,50.5
2019-05-23T10:34:17.062Z,51.4
2019-05-23T10:35:16.339Z,52.8
2019-05-23T10:36:16.606Z,51.8
2019-05-23T10:37:16.876Z,50.9
2019-05-23T10:38:17.153Z,50.4
2019-05-23T10:39:16.416Z,50.4
2019-05-23T10:40:16.702Z,49.0
2019-05-23T10:41:16.752Z,48.4
2019-05-23T10:42:17.016Z,48.8
2019-05-23T10:43:16.283Z,49.0
2019-05-23T10:44:16.564Z,49.7
2019-05-23T10:45:16.834Z,48.9
2019-05-23T10:46:17.098Z,50.3
2019-05-23T10:47:16.433Z,49.0
2019-05-23T10:48:16.716Z,49.8
2019-05-23T10:49:16.993Z,50.0
2019-05-23T10:50:16.289Z,50.9
2019-05-23T10:51:16.309Z,52.2
2019-05-23T10:52:16.579Z,52.8
2019-05-23T10:53:16.849Z,49.4
2019-05-23T10:54:17.122Z,48.2
2019-05-23T10:55:16.402Z,47.1
2019-05-23T10:56:21.038Z,46.6
2019-05-23T10:57:16.410Z,47.7
2019-05-23T10:58:16.671Z,47.1
2019-05-23T10:59:16.944Z,47.6
2019-05-23T11:00:17.230Z,47.8
2019-05-23T11:01:16.345Z,47.0
2019-05-23T11:02:16.626Z,47.4
2019-05-23T11:03:17.542Z,49.0
2019-05-23T11:04:16.827Z,46.5
2019-05-23T11:05:17.099Z,45.8
2019-05-23T11:06:17.260Z,46.9
2019-05-23T11:07:16.571Z,46.5
2019-05-23T11:08:17.019Z,46.2
2019-05-23T11:09:16.300Z,46.3
2019-05-23T11:10:16.666Z,45.8
2019-05-23T11:11:16.648Z,44.7
2019-05-23T11:12:16.926Z,46.2
2019-05-23T11:13:17.217Z,46.4
2019-05-23T11:14:16.486Z,45.5
2019-05-23T11:15:16.769Z,46.1
2019-05-23T11:16:17.061Z,50.0
2019-05-23T11:17:16.338Z,47.7
2019-05-23T11:18:16.612Z,48.0
2019-05-23T11:19:16.901Z,47.9
2019-05-23T11:20:17.179Z,48.8
2019-05-23T11:21:17.222Z,46.9
2019-05-23T11:22:16.526Z,45.0
2019-05-23T11:23:16.809Z,45.7
2019-05-23T11:24:17.106Z,46.1
2019-05-23T11:25:16.380Z,45.5
2019-05-23T11:26:16.650Z,46.6
2019-05-23T11:27:16.911Z,47.5
2019-05-23T11:28:17.175Z,46.8
2019-05-23T11:29:16.465Z,47.0
2019-05-23T11:30:16.760Z,46.7
2019-05-23T11:31:16.817Z,47.4
2019-05-23T11:32:20.707Z,47.2
2019-05-23T11:33:17.035Z,47.0
2019-05-23T11:34:16.319Z,48.5
2019-05-23T11:35:16.682Z,47.3
2019-05-23T11:36:35.245Z,45.5
2019-05-23T11:37:16.388Z,45.0
2019-05-23T11:38:16.663Z,47.0
2019-05-23T11:39:16.941Z,46.8
2019-05-23T11:40:17.246Z,46.3
2019-05-23T11:41:16.281Z,46.0
2019-05-23T11:42:16.555Z,45.1
2019-05-23T11:43:16.828Z,46.4
2019-05-23T11:44:17.085Z,45.8
2019-05-23T11:45:16.367Z,46.3
2019-05-23T11:46:16.661Z,47.1
2019-05-23T11:47:16.936Z,45.2
2019-05-23T11:48:17.208Z,46.8
2019-05-23T11:49:16.489Z,46.5
2019-05-23T11:50:16.783Z,48.4
2019-05-23T11:51:16.846Z,48.3
2019-05-23T11:52:17.186Z,49.0
2019-05-23T11:53:16.526Z,49.4
2019-05-23T11:54:16.797Z,50.5
2019-05-23T11:55:17.067Z,49.5
2019-05-23T11:56:16.353Z,49.9
2019-05-23T11:57:16.671Z,49.8
2019-05-23T11:58:17.005Z,50.0
2019-05-23T11:59:16.294Z,50.3
2019-05-23T12:00:16.618Z,49.9
2019-05-23T12:01:21.519Z,50.0
2019-05-23T12:02:16.841Z,50.0
2019-05-23T12:03:17.110Z,50.7
2019-05-23T12:04:16.386Z,51.7
2019-05-23T12:05:16.723Z,51.2
2019-05-23T12:06:17.021Z,51.7
2019-05-23T12:07:16.283Z,51.8
2019-05-23T12:08:16.547Z,50.5
2019-05-23T12:09:17.173Z,50.6
2019-05-23T12:10:16.550Z,52.0
2019-05-23T12:11:16.648Z,51.4
2019-05-23T12:12:16.917Z,52.1
2019-05-23T12:13:17.191Z,52.0
2019-05-23T12:14:16.458Z,51.7
2019-05-23T12:15:16.740Z,50.9
2019-05-23T12:16:17.011Z,50.8
2019-05-23T12:17:16.410Z,51.5
2019-05-23T12:18:16.736Z,51.8
2019-05-23T12:19:17.018Z,52.7
2019-05-23T12:20:16.311Z,53.2
2019-05-23T12:21:16.355Z,54.3
2019-05-23T12:22:16.705Z,53.0
2019-05-23T12:23:17.091Z,51.7
2019-05-23T12:24:16.392Z,53.5
2019-05-23T12:25:23.407Z,52.9
2019-05-23T12:26:16.913Z,53.0
2019-05-23T12:27:17.209Z,52.8
2019-05-23T12:28:16.567Z,52.7
2019-05-23T12:29:16.851Z,52.2
2019-05-23T12:30:17.163Z,52.1
2019-05-23T12:31:17.211Z,54.4
2019-05-23T12:32:16.499Z,53.5
2019-05-23T12:33:16.796Z,52.8
2019-05-23T12:34:17.089Z,53.0
2019-05-23T12:35:16.393Z,52.7
2019-05-23T12:36:16.652Z,53.0
2019-05-23T12:37:20.808Z,52.3
2019-05-23T12:38:17.176Z,53.9
2019-05-23T12:39:16.462Z,53.2
2019-05-23T12:40:16.752Z,52.2
2019-05-23T12:41:16.833Z,51.8
2019-05-23T12:42:17.125Z,51.6
2019-05-23T12:43:16.409Z,51.8
2019-05-23T12:44:18.265Z,51.9
2019-05-23T12:45:16.653Z,52.0
2019-05-23T12:46:17.005Z,54.0
2019-05-23T12:47:16.291Z,52.1
2019-05-23T12:48:16.576Z,50.8
2019-05-23T12:49:16.857Z,51.5
2019-05-23T12:50:17.133Z,51.0
2019-05-23T12:51:17.205Z,52.0
2019-05-23T12:52:16.494Z,51.7
2019-05-23T12:53:16.773Z,52.0
2019-05-23T12:54:17.038Z,50.5
2019-05-23T12:55:16.306Z,50.2
2019-05-23T12:56:16.623Z,50.7
2019-05-23T12:57:16.916Z,51.5
2019-05-23T12:58:17.201Z,54.6
2019-05-23T12:59:16.479Z,50.3
2019-05-23T13:00:16.800Z,49.5
2019-05-23T13:01:16.838Z,49.3
2019-05-23T13:02:17.130Z,48.0
2019-05-23T13:03:16.398Z,48.7
2019-05-23T13:04:16.667Z,49.7
2019-05-23T13:05:16.958Z,51.3
2019-05-23T13:06:17.219Z,50.0
2019-05-23T13:07:16.489Z,50.0
2019-05-23T13:08:16.770Z,51.4
2019-05-23T13:09:17.032Z,50.9
2019-05-23T13:10:16.319Z,52.7
2019-05-23T13:11:16.391Z,53.9
2019-05-23T13:12:16.835Z,54.0
2019-05-23T13:13:17.111Z,53.3
2019-05-23T13:14:16.394Z,54.0
2019-05-23T13:15:16.662Z,54.2
2019-05-23T13:16:16.939Z,53.5
2019-05-23T13:17:17.217Z,53.9